Time;durP1;ratioP1;P1;durP2;ratioP2;P2;SDS_P1;SDS_P2;PMS_P1;PMS_P2;Temp;Humidity;BMP_temperature;BMP_pressure;BME280_temperature;BME280_humidity;BME280_pressure;Samples;Min_cycle;Max_cycle;Signal;HPM_P1;HPM_P2
2024/01/31 00:02:14;;;;;;;;;;;;;;;;;;4876393;28;640180;-81
2024/01/31 00:04:41;;;;;;;;;;;;;;;;;;4874352;28;519185;-82
2024/01/31 00:07:08;;;;;;;;;;;;;;;;;;4848712;28;652186;-81
2024/01/31 00:09:39;;;;;;;;;;;;;;;;;;4887679;28;245144;-81
2024/01/31 00:12:06;;;;;;;;;;;;;;;;;;4850406;28;634209;-81
2024/01/31 00:14:33;;;;;;;;;;;;;;;;;;4825338;28;1533209;-82
2024/01/31 00:17:00;;;;;;;;;;;;;;;;;;4897075;28;348159;-82
2024/01/31 00:19:27;;;;;;;;;;;;;;;;;;4915151;28;518208;-82
2024/01/31 00:21:58;;;;;;;;;;;;;;;;;;4897270;28;322160;-81
2024/01/31 00:24:27;;;;;;;;;;;;;;;;;;4785396;28;749175;-81
2024/01/31 00:26:57;;;;;;;;;;;;;;;;;;4871847;28;825142;-81
2024/01/31 00:29:24;;;;;;;;;;;;;;;;;;4901244;28;553160;-81
2024/01/31 00:31:52;;;;;;;;;;;;;;;;;;4866843;28;600146;-81
2024/01/31 00:34:19;;;;;;;;;;;;;;;;;;4879182;28;438243;-82
2024/01/31 00:36:46;;;;;;;;;;;;;;;;;;4877814;28;464181;-81
2024/01/31 00:39:14;;;;;;;;;;;;;;;;;;4893319;28;727168;-82
2024/01/31 00:41:41;;;;;;;;;;;;;;;;;;4909289;28;274160;-82
2024/01/31 00:44:14;;;;;;;;;;;;;;;;;;4852114;28;448188;-82
2024/01/31 00:46:41;;;;;;;;;;;;;;;;;;4807122;28;681245;-81
2024/01/31 00:49:08;;;;;;;;;;;;;;;;;;4769847;28;1154197;-82
2024/01/31 00:51:39;;;;;;;;;;;;;;;;;;4871040;28;426171;-82
2024/01/31 00:54:06;;;;;;;;;;;;;;;;;;4824593;28;938181;-82
2024/01/31 00:56:36;;;;;;;;;;;;;;;;;;4904751;28;292182;-82
2024/01/31 00:59:03;;;;;;;;;;;;;;;;;;4891482;28;440169;-82
2024/01/31 01:01:30;;;;;;;;;;;;;;;;;;4881435;28;530190;-82
2024/01/31 01:03:59;;;;;;;;;;;;;;;;;;4859581;28;1222228;-82
2024/01/31 01:06:27;;;;;;;;;;;;;;;;;;4853239;28;547185;-82
2024/01/31 01:08:54;;;;;;;;;;;;;;;;;;4866657;28;492194;-82
2024/01/31 01:11:21;;;;;;;;;;;;;;;;;;4863235;28;526156;-82
2024/01/31 01:13:49;;;;;;;;;;;;;;;;;;4860952;28;433166;-82
2024/01/31 01:16:16;;;;;;;;;;;;;;;;;;4864842;28;502190;-83
2024/01/31 01:18:43;;;;;;;;;;;;;;;;;;4890220;28;270190;-82
2024/01/31 01:21:13;;;;;;;;;;;;;;;;;;4867256;28;528189;-83
2024/01/31 01:23:41;;;;;;;;;;;;;;;;;;4892235;28;411159;-82
2024/01/31 01:26:08;;;;;;;;;;;;;;;;;;4885815;28;607198;-83
2024/01/31 01:28:35;;;;;;;;;;;;;;;;;;4876549;28;525179;-82
2024/01/31 01:31:03;;;;;;;;;;;;;;;;;;4864761;28;403178;-82
2024/01/31 01:33:30;;;;;;;;;;;;;;;;;;4854329;28;1000192;-82
2024/01/31 01:35:58;;;;;;;;;;;;;;;;;;4901864;28;333143;-82
2024/01/31 01:38:25;;;;;;;;;;;;;;;;;;4888618;28;526192;-82
2024/01/31 01:40:55;;;;;;;;;;;;;;;;;;4853623;28;486171;-82
2024/01/31 01:43:23;;;;;;;;;;;;;;;;;;4895063;28;422198;-83
2024/01/31 01:45:51;;;;;;;;;;;;;;;;;;4826864;28;640197;-82
2024/01/31 01:48:19;;;;;;;;;;;;;;;;;;4817745;28;723183;-82
2024/01/31 01:50:46;;;;;;;;;;;;;;;;;;4772406;28;757185;-82
2024/01/31 01:53:13;;;;;;;;;;;;;;;;;;4869330;28;525171;-82
2024/01/31 01:55:40;;;;;;;;;;;;;;;;;;4748564;28;1075196;-83
2024/01/31 01:58:08;;;;;;;;;;;;;;;;;;4856249;28;470171;-83
2024/01/31 02:00:35;;;;;;;;;;;;;;;;;;4850618;28;636183;-82
2024/01/31 02:03:02;;;;;;;;;;;;;;;;;;4831352;28;869194;-82
2024/01/31 02:05:30;;;;;;;;;;;;;;;;;;4884072;28;542185;-82
2024/01/31 02:07:57;;;;;;;;;;;;;;;;;;4780608;28;1025306;-82
2024/01/31 02:10:24;;;;;;;;;;;;;;;;;;4662791;28;1785155;-82
2024/01/31 02:12:55;;;;;;;;;;;;;;;;;;4838583;28;817225;-82
2024/01/31 02:15:22;;;;;;;;;;;;;;;;;;4848543;28;426194;-82
2024/01/31 02:17:50;;;;;;;;;;;;;;;;;;4885164;28;391186;-82
2024/01/31 02:20:17;;;;;;;;;;;;;;;;;;4771911;28;854204;-82
2024/01/31 02:22:44;;;;;;;;;;;;;;;;;;4885581;28;568174;-82
2024/01/31 02:25:13;;;;;;;;;;;;;;;;;;4870974;28;767193;-82
2024/01/31 02:27:41;;;;;;;;;;;;;;;;;;4886526;28;318143;-82
2024/01/31 02:30:08;;;;;;;;;;;;;;;;;;4836847;28;665169;-82
2024/01/31 02:32:35;;;;;;;;;;;;;;;;;;4912469;28;253163;-82
2024/01/31 02:35:02;;;;;;;;;;;;;;;;;;4895211;28;513285;-82
2024/01/31 02:37:29;;;;;;;;;;;;;;;;;;4912422;28;508451;-82
2024/01/31 02:39:57;;;;;;;;;;;;;;;;;;4861166;28;691171;-82
2024/01/31 02:42:24;;;;;;;;;;;;;;;;;;4927389;28;215152;-82
2024/01/31 02:44:56;;;;;;;;;;;;;;;;;;4904242;28;247167;-82
2024/01/31 02:47:23;;;;;;;;;;;;;;;;;;4868818;28;913212;-82
2024/01/31 02:50:00;;;;;;;;;;;;;;;;;;4907590;28;645169;-82
2024/01/31 02:52:27;;;;;;;;;;;;;;;;;;4908627;28;391179;-82
2024/01/31 02:54:54;;;;;;;;;;;;;;;;;;4901298;28;358178;-82
2024/01/31 02:57:22;;;;;;;;;;;;;;;;;;4931755;28;285176;-82
2024/01/31 02:59:49;;;;;;;;;;;;;;;;;;4906025;28;381163;-82
2024/01/31 03:02:17;;;;;;;;;;;;;;;;;;4896106;28;525177;-82
2024/01/31 03:04:44;;;;;;;;;;;;;;;;;;4867694;28;423164;-81
2024/01/31 03:07:11;;;;;;;;;;;;;;;;;;4944792;28;517187;-82
2024/01/31 03:09:39;;;;;;;;;;;;;;;;;;4936769;28;253157;-82
2024/01/31 03:12:06;;;;;;;;;;;;;;;;;;4867096;28;695162;-82
2024/01/31 03:14:33;;;;;;;;;;;;;;;;;;4883798;28;746188;-82
2024/01/31 03:17:01;;;;;;;;;;;;;;;;;;4899351;28;421445;-82
2024/01/31 03:19:28;;;;;;;;;;;;;;;;;;4879108;28;426152;-82
2024/01/31 03:21:57;;;;;;;;;;;;;;;;;;4859037;28;513211;-81
2024/01/31 03:24:25;;;;;;;;;;;;;;;;;;4856975;28;893245;-82
2024/01/31 03:26:52;;;;;;;;;;;;;;;;;;4893160;28;453172;-81
2024/01/31 03:29:22;;;;;;;;;;;;;;;;;;4888429;28;589175;-82
2024/01/31 03:31:49;;;;;;;;;;;;;;;;;;4932174;28;320194;-82
2024/01/31 03:34:17;;;;;;;;;;;;;;;;;;4934161;28;233153;-82
2024/01/31 03:36:44;;;;;;;;;;;;;;;;;;4909380;28;272217;-82
2024/01/31 03:39:12;;;;;;;;;;;;;;;;;;4929712;28;332154;-82
2024/01/31 03:41:39;;;;;;;;;;;;;;;;;;4923300;28;231176;-82
2024/01/31 03:44:06;;;;;;;;;;;;;;;;;;4906378;28;400190;-82
2024/01/31 03:46:38;;;;;;;;;;;;;;;;;;4884364;28;652176;-82
2024/01/31 03:49:06;;;;;;;;;;;;;;;;;;4840575;28;781180;-82
2024/01/31 03:51:33;;;;;;;;;;;;;;;;;;4843768;28;626164;-82
2024/01/31 03:54:03;;;;;;;;;;;;;;;;;;4856230;28;720178;-82
2024/01/31 03:56:34;;;;;;;;;;;;;;;;;;4869332;28;537173;-82
2024/01/31 03:59:01;;;;;;;;;;;;;;;;;;4871758;28;950201;-82
2024/01/31 04:01:28;;;;;;;;;;;;;;;;;;4864059;28;541177;-82
2024/01/31 04:03:56;;;;;;;;;;;;;;;;;;4793416;28;648180;-82
2024/01/31 04:06:23;;;;;;;;;;;;;;;;;;4833633;28;1434179;-82
2024/01/31 04:08:51;;;;;;;;;;;;;;;;;;4862063;28;476140;-82
2024/01/31 04:11:18;;;;;;;;;;;;;;;;;;4772291;28;1267181;-82
2024/01/31 04:13:46;;;;;;;;;;;;;;;;;;4864372;28;651159;-82
2024/01/31 04:16:14;;;;;;;;;;;;;;;;;;4883336;28;515181;-83
2024/01/31 04:18:44;;;;;;;;;;;;;;;;;;4831785;28;1424208;-82
2024/01/31 04:21:16;;;;;;;;;;;;;;;;;;4790680;28;909206;-82
2024/01/31 04:23:44;;;;;;;;;;;;;;;;;;4839940;28;579163;-82
2024/01/31 04:26:11;;;;;;;;;;;;;;;;;;4823685;28;1274196;-82
2024/01/31 04:28:41;;;;;;;;;;;;;;;;;;4836126;28;788181;-82
2024/01/31 04:31:08;;;;;;;;;;;;;;;;;;4893703;28;413144;-82
2024/01/31 04:33:36;;;;;;;;;;;;;;;;;;4765151;28;699158;-82
2024/01/31 04:36:03;;;;;;;;;;;;;;;;;;4849779;28;949179;-82
2024/01/31 04:38:31;;;;;;;;;;;;;;;;;;4759377;28;1327193;-82
2024/01/31 04:40:59;;;;;;;;;;;;;;;;;;4784917;28;968214;-82
2024/01/31 04:43:27;;;;;;;;;;;;;;;;;;4836767;28;727170;-82
2024/01/31 04:45:54;;;;;;;;;;;;;;;;;;4859805;28;384168;-82
2024/01/31 04:48:22;;;;;;;;;;;;;;;;;;4801060;28;998176;-82
2024/01/31 04:50:52;;;;;;;;;;;;;;;;;;4782452;28;1175192;-81
2024/01/31 04:53:19;;;;;;;;;;;;;;;;;;4808598;28;1140184;-82
2024/01/31 04:55:47;;;;;;;;;;;;;;;;;;4821831;28;765171;-82
2024/01/31 04:58:14;;;;;;;;;;;;;;;;;;4741003;28;780181;-82
2024/01/31 05:00:41;;;;;;;;;;;;;;;;;;4826656;28;685207;-83
2024/01/31 05:03:09;;;;;;;;;;;;;;;;;;4729464;28;1613199;-82
2024/01/31 05:05:36;;;;;;;;;;;;;;;;;;4807161;28;862182;-82
2024/01/31 05:08:05;;;;;;;;;;;;;;;;;;4815703;28;683170;-82
2024/01/31 05:10:34;;;;;;;;;;;;;;;;;;4771390;28;1678192;-82
2024/01/31 05:13:02;;;;;;;;;;;;;;;;;;4773926;28;1376198;-82
2024/01/31 05:15:30;;;;;;;;;;;;;;;;;;4672582;28;1651188;-82
2024/01/31 05:17:59;;;;;;;;;;;;;;;;;;4729403;28;1551193;-82
2024/01/31 05:20:27;;;;;;;;;;;;;;;;;;4802747;28;619160;-82
2024/01/31 05:22:54;;;;;;;;;;;;;;;;;;4774593;28;1916227;-82
2024/01/31 05:25:21;;;;;;;;;;;;;;;;;;4643282;28;1845179;-82
2024/01/31 05:27:50;;;;;;;;;;;;;;;;;;4682416;28;2835240;-82
2024/01/31 05:30:18;;;;;;;;;;;;;;;;;;4659961;28;1355204;-82
2024/01/31 05:32:46;;;;;;;;;;;;;;;;;;4952409;28;25072;-82
2024/01/31 05:35:14;;;;;;;;;;;;;;;;;;4748695;28;761183;-82
2024/01/31 05:37:41;;;;;;;;;;;;;;;;;;4788631;28;1170199;-82
2024/01/31 05:40:09;;;;;;;;;;;;;;;;;;4699512;28;1634211;-82
2024/01/31 05:42:36;;;;;;;;;;;;;;;;;;4771388;28;1131228;-82
2024/01/31 05:45:04;;;;;;;;;;;;;;;;;;4707983;28;1397195;-82
2024/01/31 05:47:32;;;;;;;;;;;;;;;;;;4794055;28;1321186;-82
2024/01/31 05:50:00;;;;;;;;;;;;;;;;;;4782913;28;977184;-82
2024/01/31 05:52:27;;;;;;;;;;;;;;;;;;4815841;28;552191;-82
2024/01/31 05:54:55;;;;;;;;;;;;;;;;;;4752466;28;1127195;-82
2024/01/31 05:57:22;;;;;;;;;;;;;;;;;;4764247;28;933202;-82
2024/01/31 05:59:50;;;;;;;;;;;;;;;;;;4801157;28;862190;-83
2024/01/31 06:02:18;;;;;;;;;;;;;;;;;;4669175;28;1794204;-82
2024/01/31 06:04:46;;;;;;;;;;;;;;;;;;4713357;28;967205;-82
2024/01/31 06:07:14;;;;;;;;;;;;;;;;;;4691083;28;1566204;-83
2024/01/31 06:09:42;;;;;;;;;;;;;;;;;;4696232;28;1117170;-82
2024/01/31 06:12:09;;;;;;;;;;;;;;;;;;4734495;28;1360186;-83
2024/01/31 06:14:37;;;;;;;;;;;;;;;;;;4765221;28;906191;-82
2024/01/31 06:17:05;;;;;;;;;;;;;;;;;;4818301;28;701207;-82
2024/01/31 06:19:33;;;;;;;;;;;;;;;;;;4812135;28;992200;-82
2024/01/31 06:22:00;;;;;;;;;;;;;;;;;;4719533;28;2268214;-82
2024/01/31 06:24:28;;;;;;;;;;;;;;;;;;4638286;28;1589244;-82
2024/01/31 06:26:56;;;;;;;;;;;;;;;;;;4576376;28;2731260;-82
2024/01/31 06:29:24;;;;;;;;;;;;;;;;;;4727406;28;3807223;-82
2024/01/31 06:31:54;;;;;;;;;;;;;;;;;;4589372;28;2887193;-81
2024/01/31 06:34:34;;;;;;;;;;;;;;;;;;4671821;28;1830202;-82
2024/01/31 06:37:02;;;;;;;;;;;;;;;;;;4513550;28;3317214;-83
2024/01/31 06:39:29;;;;;;;;;;;;;;;;;;4559449;28;2917259;-82
2024/01/31 06:41:56;;;;;;;;;;;;;;;;;;4674186;28;1390203;-82
2024/01/31 06:44:25;;;;;;;;;;;;;;;;;;4620005;28;1860251;-82
2024/01/31 06:46:56;;;;;;;;;;;;;;;;;;4559421;28;2252210;-82
2024/01/31 06:49:24;;;;;;;;;;;;;;;;;;4646213;28;2890222;-82
2024/01/31 06:51:52;;;;;;;;;;;;;;;;;;4571798;28;2294191;-82
2024/01/31 06:54:19;;;;;;;;;;;;;;;;;;4730511;28;3335193;-82
2024/01/31 06:56:47;;;;;;;;;;;;;;;;;;4825630;28;797195;-82
2024/01/31 06:59:15;;;;;;;;;;;;;;;;;;4636843;28;1964178;-82
2024/01/31 07:01:42;;;;;;;;;;;;;;;;;;4963566;28;51053;-82
2024/01/31 07:04:11;;;;;;;;;;;;;;;;;;4629178;28;2842194;-82
2024/01/31 07:06:41;;;;;;;;;;;;;;;;;;4652962;28;2947210;-82
2024/01/31 07:09:08;;;;;;;;;;;;;;;;;;4721744;28;1723192;-82
2024/01/31 07:11:35;;;;;;;;;;;;;;;;;;4666847;28;1240252;-82
2024/01/31 07:14:03;;;;;;;;;;;;;;;;;;4706381;28;1112185;-82
2024/01/31 07:16:30;;;;;;;;;;;;;;;;;;4721065;28;1397202;-82
2024/01/31 07:18:58;;;;;;;;;;;;;;;;;;4698147;28;1258201;-82
2024/01/31 07:21:26;;;;;;;;;;;;;;;;;;4669492;28;1493194;-82
2024/01/31 07:23:54;;;;;;;;;;;;;;;;;;4694921;28;936197;-82
2024/01/31 07:26:22;;;;;;;;;;;;;;;;;;4695569;28;1197203;-82
2024/01/31 07:28:49;;;;;;;;;;;;;;;;;;4736964;28;1211200;-83
2024/01/31 07:31:18;;;;;;;;;;;;;;;;;;4720440;28;1283186;-82
2024/01/31 07:33:46;;;;;;;;;;;;;;;;;;4689127;28;1557189;-83
2024/01/31 07:36:13;;;;;;;;;;;;;;;;;;4717865;28;1061218;-83
2024/01/31 07:38:45;;;;;;;;;;;;;;;;;;4676568;28;2227216;-83
2024/01/31 07:41:12;;;;;;;;;;;;;;;;;;4717109;28;1250189;-82
2024/01/31 07:43:40;;;;;;;;;;;;;;;;;;4756570;28;1030164;-82
2024/01/31 07:46:10;;;;;;;;;;;;;;;;;;4715263;28;1017247;-82
2024/01/31 07:48:38;;;;;;;;;;;;;;;;;;4742947;28;944177;-82
2024/01/31 07:51:06;;;;;;;;;;;;;;;;;;4753658;28;1153241;-82
2024/01/31 07:53:34;;;;;;;;;;;;;;;;;;4702529;28;1412178;-83
2024/01/31 07:56:01;;;;;;;;;;;;;;;;;;4742417;28;1096174;-82
2024/01/31 07:58:31;;;;;;;;;;;;;;;;;;4708115;28;1372200;-82
2024/01/31 08:01:00;;;;;;;;;;;;;;;;;;4615765;28;2661417;-82
2024/01/31 08:03:28;;;;;;;;;;;;;;;;;;4745675;28;1039180;-82
2024/01/31 08:05:55;;;;;;;;;;;;;;;;;;4703639;28;935185;-82
2024/01/31 08:08:23;;;;;;;;;;;;;;;;;;4721981;28;1536219;-82
2024/01/31 08:10:50;;;;;;;;;;;;;;;;;;4830969;28;1101188;-82
2024/01/31 08:13:18;;;;;;;;;;;;;;;;;;4755980;28;1083172;-82
2024/01/31 08:15:53;;;;;;;;;;;;;;;;;;4737749;28;1238187;-83
2024/01/31 08:18:20;;;;;;;;;;;;;;;;;;4780154;28;1584182;-83
2024/01/31 08:20:47;;;;;;;;;;;;;;;;;;4738916;28;1938211;-83
2024/01/31 08:26:18;;;;;;;;;;;;;;;;;;4794281;28;1273206;-83
2024/01/31 08:28:48;;;;;;;;;;;;;;;;;;4700072;28;1684192;-83
2024/01/31 08:31:22;;;;;;;;;;;;;;;;;;4794009;28;1170198;-83
2024/01/31 08:33:49;;;;;;;;;;;;;;;;;;4736567;28;869152;-83
2024/01/31 08:36:17;;;;;;;;;;;;;;;;;;4752561;28;1066171;-83
2024/01/31 08:38:44;;;;;;;;;;;;;;;;;;4783685;28;1119205;-83
2024/01/31 08:41:15;;;;;;;;;;;;;;;;;;4806137;28;530198;-83
2024/01/31 08:43:42;;;;;;;;;;;;;;;;;;4759552;28;1236201;-83
2024/01/31 08:46:09;;;;;;;;;;;;;;;;;;4776991;28;1286221;-82
2024/01/31 08:48:38;;;;;;;;;;;;;;;;;;4803477;28;931179;-83
2024/01/31 08:51:08;;;;;;;;;;;;;;;;;;4852220;28;745161;-83
2024/01/31 08:53:36;;;;;;;;;;;;;;;;;;4778638;28;743188;-83
2024/01/31 08:56:04;;;;;;;;;;;;;;;;;;4827798;28;788181;-83
2024/01/31 08:58:35;;;;;;;;;;;;;;;;;;4855291;28;721166;-83
2024/01/31 09:01:05;;;;;;;;;;;;;;;;;;4841336;28;1073201;-82
2024/01/31 09:03:35;;;;;;;;;;;;;;;;;;4862255;28;694172;-83
2024/01/31 09:06:02;;;;;;;;;;;;;;;;;;4801483;28;951201;-83
2024/01/31 09:08:29;;;;;;;;;;;;;;;;;;4858194;28;689196;-83
2024/01/31 09:10:57;;;;;;;;;;;;;;;;;;4862712;28;605213;-83
2024/01/31 09:13:25;;;;;;;;;;;;;;;;;;4844481;28;452185;-81
2024/01/31 09:15:54;;;;;;;;;;;;;;;;;;4859360;28;616181;-81
2024/01/31 09:18:21;;;;;;;;;;;;;;;;;;4790806;28;912181;-81
2024/01/31 09:20:49;;;;;;;;;;;;;;;;;;4819950;28;1344198;-80
2024/01/31 09:23:19;;;;;;;;;;;;;;;;;;4863779;28;500158;-80
2024/01/31 09:25:46;;;;;;;;;;;;;;;;;;4836095;28;1360194;-80
2024/01/31 09:28:14;;;;;;;;;;;;;;;;;;4848443;28;442166;-83
2024/01/31 09:30:43;;;;;;;;;;;;;;;;;;4812290;28;730179;-83
2024/01/31 09:33:11;;;;;;;;;;;;;;;;;;4856878;28;837184;-83
2024/01/31 09:35:39;;;;;;;;;;;;;;;;;;4886288;28;372162;-83
2024/01/31 09:38:07;;;;;;;;;;;;;;;;;;4872078;28;1137197;-83
2024/01/31 09:40:34;;;;;;;;;;;;;;;;;;4878910;28;378190;-83
2024/01/31 09:43:02;;;;;;;;;;;;;;;;;;4853590;28;992191;-83
2024/01/31 09:45:30;;;;;;;;;;;;;;;;;;4888281;28;550181;-83
2024/01/31 09:47:57;;;;;;;;;;;;;;;;;;4842797;28;718982;-83
2024/01/31 09:50:25;;;;;;;;;;;;;;;;;;4818735;28;1317164;-83
2024/01/31 09:52:53;;;;;;;;;;;;;;;;;;4855142;28;586188;-83
2024/01/31 09:55:20;;;;;;;;;;;;;;;;;;4885791;28;441171;-83
2024/01/31 09:57:53;;;;;;;;;;;;;;;;;;4888026;28;333163;-84
2024/01/31 10:00:22;;;;;;;;;;;;;;;;;;4918717;28;344172;-83
2024/01/31 10:02:50;;;;;;;;;;;;;;;;;;4923500;28;213153;-83
2024/01/31 10:05:17;;;;;;;;;;;;;;;;;;4924366;28;268168;-84
2024/01/31 10:07:44;;;;;;;;;;;;;;;;;;4910618;28;359180;-82
2024/01/31 10:10:11;;;;;;;;;;;;;;;;;;4909600;28;487176;-81
2024/01/31 10:12:39;;;;;;;;;;;;;;;;;;4938999;28;204144;-83
2024/01/31 10:15:06;;;;;;;;;;;;;;;;;;4891389;28;592153;-82
2024/01/31 10:17:34;;;;;;;;;;;;;;;;;;4915767;28;409173;-82
2024/01/31 10:20:06;;;;;;;;;;;;;;;;;;4922703;28;391203;-82
2024/01/31 10:22:33;;;;;;;;;;;;;;;;;;4929510;28;273171;-82
2024/01/31 10:25:04;;;;;;;;;;;;;;;;;;4921784;28;299156;-82
2024/01/31 10:27:31;;;;;;;;;;;;;;;;;;4934314;28;312184;-82
2024/01/31 10:29:58;;;;;;;;;;;;;;;;;;4941161;28;265183;-82
2024/01/31 10:32:25;;;;;;;;;;;;;;;;;;4935688;28;247148;-82
2024/01/31 10:34:55;;;;;;;;;;;;;;;;;;4946410;28;174196;-82
2024/01/31 10:37:42;;;;;;;;;;;;;;;;;;4954262;28;170141;-82
2024/01/31 10:40:21;;;;;;;;;;;;;;;;;;4928395;28;195166;-82
2024/01/31 10:42:48;;;;;;;;;;;;;;;;;;4944261;28;161159;-81
2024/01/31 10:45:15;;;;;;;;;;;;;;;;;;4928641;28;308189;-82
2024/01/31 10:47:44;;;;;;;;;;;;;;;;;;4920462;28;273159;-82
2024/01/31 10:50:11;;;;;;;;;;;;;;;;;;4949493;28;288154;-81
2024/01/31 10:52:41;;;;;;;;;;;;;;;;;;4937995;28;239149;-82
2024/01/31 10:55:08;;;;;;;;;;;;;;;;;;4920278;28;208154;-82
2024/01/31 10:57:37;;;;;;;;;;;;;;;;;;4909171;28;309001;-83
2024/01/31 11:00:04;;;;;;;;;;;;;;;;;;4915729;28;288154;-81
2024/01/31 11:02:32;;;;;;;;;;;;;;;;;;4904342;28;395186;-81
2024/01/31 11:04:59;;;;;;;;;;;;;;;;;;4915837;28;300196;-81
2024/01/31 11:07:26;;;;;;;;;;;;;;;;;;4917004;28;270157;-81
2024/01/31 11:09:53;;;;;;;;;;;;;;;;;;4891507;28;276166;-82
2024/01/31 11:12:20;;;;;;;;;;;;;;;;;;4872407;28;552178;-79
2024/01/31 11:14:48;;;;;;;;;;;;;;;;;;4888089;28;624197;-82
2024/01/31 11:17:15;;;;;;;;;;;;;;;;;;4893116;28;416184;-82
2024/01/31 11:19:45;;;;;;;;;;;;;;;;;;4939858;28;197172;-81
2024/01/31 11:22:12;;;;;;;;;;;;;;;;;;4906677;28;385172;-80
2024/01/31 11:24:40;;;;;;;;;;;;;;;;;;4901912;28;746203;-82
2024/01/31 11:27:08;;;;;;;;;;;;;;;;;;4871698;28;502171;-82
2024/01/31 11:29:35;;;;;;;;;;;;;;;;;;4900020;28;337395;-82
2024/01/31 11:32:02;;;;;;;;;;;;;;;;;;4885066;28;452166;-82
2024/01/31 11:34:29;;;;;;;;;;;;;;;;;;4911209;28;298184;-81
2024/01/31 11:36:57;;;;;;;;;;;;;;;;;;4916987;28;327179;-82
2024/01/31 11:39:24;;;;;;;;;;;;;;;;;;4921577;28;332160;-83
2024/01/31 11:41:52;;;;;;;;;;;;;;;;;;4921806;28;355170;-82
2024/01/31 11:44:19;;;;;;;;;;;;;;;;;;4987406;28;29089;-82
2024/01/31 11:46:46;;;;;;;;;;;;;;;;;;4964414;28;280185;-82
2024/01/31 11:49:13;;;;;;;;;;;;;;;;;;4972850;28;149172;-81
2024/01/31 11:51:41;;;;;;;;;;;;;;;;;;4929640;28;291193;-82
2024/01/31 11:54:08;;;;;;;;;;;;;;;;;;4906268;28;525176;-81
2024/01/31 11:56:36;;;;;;;;;;;;;;;;;;4913220;28;438197;-82
2024/01/31 11:59:04;;;;;;;;;;;;;;;;;;4973350;28;43103;-82
2024/01/31 12:01:31;;;;;;;;;;;;;;;;;;4977974;28;26141;-82
2024/01/31 12:03:58;;;;;;;;;;;;;;;;;;4939225;28;220144;-81
2024/01/31 12:06:25;;;;;;;;;;;;;;;;;;4918233;28;286174;-82
2024/01/31 12:08:52;;;;;;;;;;;;;;;;;;4913593;28;426148;-82
2024/01/31 12:11:20;;;;;;;;;;;;;;;;;;4916242;28;586186;-82
2024/01/31 12:13:47;;;;;;;;;;;;;;;;;;4927065;28;350187;-82
2024/01/31 12:16:14;;;;;;;;;;;;;;;;;;4904185;28;587163;-82
2024/01/31 12:18:41;;;;;;;;;;;;;;;;;;4925982;28;437188;-82
2024/01/31 12:21:10;;;;;;;;;;;;;;;;;;4939281;28;347169;-83
2024/01/31 12:23:37;;;;;;;;;;;;;;;;;;4936087;28;194168;-82
2024/01/31 12:26:04;;;;;;;;;;;;;;;;;;4974109;28;110162;-83
2024/01/31 12:28:32;;;;;;;;;;;;;;;;;;4962150;28;119168;-81
2024/01/31 12:30:59;;;;;;;;;;;;;;;;;;4949027;28;197143;-82
2024/01/31 12:33:26;;;;;;;;;;;;;;;;;;4937697;28;192149;-82
2024/01/31 12:35:53;;;;;;;;;;;;;;;;;;4918218;28;295145;-83
2024/01/31 12:38:20;;;;;;;;;;;;;;;;;;4969990;28;114170;-82
2024/01/31 12:40:48;;;;;;;;;;;;;;;;;;4915883;28;441188;-82
2024/01/31 12:43:15;;;;;;;;;;;;;;;;;;4978789;28;49152;-83
2024/01/31 12:45:43;;;;;;;;;;;;;;;;;;4969939;28;92150;-83
2024/01/31 12:48:10;;;;;;;;;;;;;;;;;;4976254;28;53110;-82
2024/01/31 12:50:37;;;;;;;;;;;;;;;;;;4961560;28;185135;-83
2024/01/31 12:53:07;;;;;;;;;;;;;;;;;;4926276;28;216158;-82
2024/01/31 12:55:34;;;;;;;;;;;;;;;;;;4935682;28;450157;-82
2024/01/31 12:58:02;;;;;;;;;;;;;;;;;;4985036;28;39188;-82
2024/01/31 13:00:32;;;;;;;;;;;;;;;;;;4979571;28;35086;-83
2024/01/31 13:02:59;;;;;;;;;;;;;;;;;;5000351;28;31070;-82
2024/01/31 13:05:26;;;;;;;;;;;;;;;;;;5014670;28;29066;-82
2024/01/31 13:07:53;;;;;;;;;;;;;;;;;;5008235;28;29060;-83
2024/01/31 13:10:20;;;;;;;;;;;;;;;;;;4998395;28;30104;-82
2024/01/31 13:12:48;;;;;;;;;;;;;;;;;;5003652;28;29119;-83
2024/01/31 13:15:16;;;;;;;;;;;;;;;;;;4998359;28;39156;-83
2024/01/31 13:17:44;;;;;;;;;;;;;;;;;;4982082;28;38142;-83
2024/01/31 13:20:11;;;;;;;;;;;;;;;;;;4977550;28;27047;-83
2024/01/31 13:22:38;;;;;;;;;;;;;;;;;;4988537;28;50065;-83
2024/01/31 13:25:05;;;;;;;;;;;;;;;;;;4992168;28;30191;-82
2024/01/31 13:27:32;;;;;;;;;;;;;;;;;;4994570;28;30160;-82
2024/01/31 13:30:02;;;;;;;;;;;;;;;;;;4990731;28;27116;-83
2024/01/31 13:32:30;;;;;;;;;;;;;;;;;;4985998;28;33173;-83
2024/01/31 13:34:57;;;;;;;;;;;;;;;;;;4993307;28;37262;-82
2024/01/31 13:37:24;;;;;;;;;;;;;;;;;;4984312;28;33150;-83
2024/01/31 13:39:51;;;;;;;;;;;;;;;;;;4991810;28;34095;-82
2024/01/31 13:42:18;;;;;;;;;;;;;;;;;;4992811;28;25136;-82
2024/01/31 13:44:45;;;;;;;;;;;;;;;;;;4987248;28;33070;-83
2024/01/31 13:47:12;;;;;;;;;;;;;;;;;;4987011;28;32073;-83
2024/01/31 13:49:47;;;;;;;;;;;;;;;;;;4985443;28;25065;-83
2024/01/31 13:52:14;;;;;;;;;;;;;;;;;;4994809;28;25078;-83
2024/01/31 13:54:41;;;;;;;;;;;;;;;;;;4990497;28;26101;-82
2024/01/31 13:57:08;;;;;;;;;;;;;;;;;;4980508;28;25058;-83
2024/01/31 13:59:35;;;;;;;;;;;;;;;;;;4990564;28;42111;-82
2024/01/31 14:02:05;;;;;;;;;;;;;;;;;;4985197;28;27064;-82
2024/01/31 14:04:32;;;;;;;;;;;;;;;;;;4991402;28;25104;-83
2024/01/31 14:06:59;;;;;;;;;;;;;;;;;;4988408;28;29139;-83
2024/01/31 14:09:26;;;;;;;;;;;;;;;;;;4985379;28;26088;-83
2024/01/31 14:11:53;;;;;;;;;;;;;;;;;;4999386;28;31093;-82
2024/01/31 14:14:24;;;;;;;;;;;;;;;;;;4996170;28;26090;-82
2024/01/31 14:16:54;;;;;;;;;;;;;;;;;;4987809;28;33083;-82
2024/01/31 14:19:24;;;;;;;;;;;;;;;;;;4998356;28;29096;-83
2024/01/31 14:21:51;;;;;;;;;;;;;;;;;;4996525;28;32089;-83
2024/01/31 14:24:22;;;;;;;;;;;;;;;;;;4987875;28;62097;-83
2024/01/31 14:26:54;;;;;;;;;;;;;;;;;;4976467;28;148192;-83
2024/01/31 14:29:21;;;;;;;;;;;;;;;;;;4991180;28;29117;-84
2024/01/31 14:31:48;;;;;;;;;;;;;;;;;;4992032;28;25048;-84
2024/01/31 14:34:18;;;;;;;;;;;;;;;;;;4986220;28;32124;-83
2024/01/31 14:36:46;;;;;;;;;;;;;;;;;;4983954;28;29061;-84
2024/01/31 14:39:13;;;;;;;;;;;;;;;;;;4984818;28;29176;-83
2024/01/31 14:41:43;;;;;;;;;;;;;;;;;;4990606;28;26085;-83
2024/01/31 14:44:10;;;;;;;;;;;;;;;;;;4987988;28;25088;-83
2024/01/31 14:46:37;;;;;;;;;;;;;;;;;;4990963;28;25086;-83
2024/01/31 14:49:06;;;;;;;;;;;;;;;;;;4996477;28;33100;-82
2024/01/31 14:51:33;;;;;;;;;;;;;;;;;;4999856;28;31049;-83
2024/01/31 14:54:00;;;;;;;;;;;;;;;;;;4998526;28;28082;-83
2024/01/31 14:56:27;;;;;;;;;;;;;;;;;;4988444;28;32138;-83
2024/01/31 14:58:54;;;;;;;;;;;;;;;;;;4984610;28;25139;-83
2024/01/31 15:01:21;;;;;;;;;;;;;;;;;;4994914;28;25082;-82
2024/01/31 15:03:48;;;;;;;;;;;;;;;;;;4992229;28;27113;-82
2024/01/31 15:06:17;;;;;;;;;;;;;;;;;;4995116;28;25222;-82
2024/01/31 15:08:51;;;;;;;;;;;;;;;;;;4994558;28;28085;-83
2024/01/31 15:11:18;;;;;;;;;;;;;;;;;;4987881;28;31106;-83
2024/01/31 15:13:45;;;;;;;;;;;;;;;;;;4989046;28;25120;-83
2024/01/31 15:16:13;;;;;;;;;;;;;;;;;;4993348;28;32092;-83
2024/01/31 15:18:40;;;;;;;;;;;;;;;;;;4994028;28;33102;-83
2024/01/31 15:21:07;;;;;;;;;;;;;;;;;;4993023;28;32142;-82
2024/01/31 15:23:34;;;;;;;;;;;;;;;;;;5001545;28;26060;-83
2024/01/31 15:26:01;;;;;;;;;;;;;;;;;;4999543;28;27058;-83
2024/01/31 15:28:28;;;;;;;;;;;;;;;;;;4993705;28;31111;-82
2024/01/31 15:30:55;;;;;;;;;;;;;;;;;;4993154;28;26064;-83
2024/01/31 15:33:22;;;;;;;;;;;;;;;;;;4993692;28;32071;-82
2024/01/31 15:35:49;;;;;;;;;;;;;;;;;;4993729;28;31066;-83
2024/01/31 15:38:20;;;;;;;;;;;;;;;;;;4992525;28;29102;-83
2024/01/31 15:40:47;;;;;;;;;;;;;;;;;;4991105;28;25120;-83
2024/01/31 15:43:17;;;;;;;;;;;;;;;;;;5000309;28;25147;-83
2024/01/31 15:45:47;;;;;;;;;;;;;;;;;;4992735;28;32099;-83
2024/01/31 15:48:14;;;;;;;;;;;;;;;;;;4992946;28;26146;-83
2024/01/31 15:50:41;;;;;;;;;;;;;;;;;;4992713;28;29105;-83
2024/01/31 15:53:08;;;;;;;;;;;;;;;;;;4991249;28;31125;-83
2024/01/31 15:55:39;;;;;;;;;;;;;;;;;;4994414;28;29102;-83
2024/01/31 15:58:06;;;;;;;;;;;;;;;;;;4993897;28;31089;-83
2024/01/31 16:00:33;;;;;;;;;;;;;;;;;;4992504;28;25062;-83
2024/01/31 16:03:00;;;;;;;;;;;;;;;;;;4990752;28;31058;-82
2024/01/31 16:05:27;;;;;;;;;;;;;;;;;;4989677;28;25159;-82
2024/01/31 16:07:57;;;;;;;;;;;;;;;;;;4964709;28;139165;-83
2024/01/31 16:10:28;;;;;;;;;;;;;;;;;;4987965;28;28087;-83
2024/01/31 16:12:55;;;;;;;;;;;;;;;;;;4982937;28;36058;-82
2024/01/31 16:15:25;;;;;;;;;;;;;;;;;;4987836;28;26094;-82
2024/01/31 16:17:52;;;;;;;;;;;;;;;;;;4996342;28;40113;-82
2024/01/31 16:20:20;;;;;;;;;;;;;;;;;;4983208;28;40110;-83
2024/01/31 16:22:47;;;;;;;;;;;;;;;;;;5001890;28;25092;-83
2024/01/31 16:25:15;;;;;;;;;;;;;;;;;;5003053;28;31099;-83
2024/01/31 16:27:42;;;;;;;;;;;;;;;;;;4992822;28;31112;-82
2024/01/31 16:30:10;;;;;;;;;;;;;;;;;;4990455;28;35092;-83
2024/01/31 16:32:37;;;;;;;;;;;;;;;;;;4988978;28;35129;-83
2024/01/31 16:35:04;;;;;;;;;;;;;;;;;;4986917;28;36053;-83
2024/01/31 16:37:31;;;;;;;;;;;;;;;;;;4996634;28;32080;-83